createdAt,value
2022-08-26T00:00:51.268Z,23.35
2022-08-26T00:03:20.012Z,23.38
2022-08-26T00:05:51.870Z,23.42
2022-08-26T00:08:21.772Z,23.49
2022-08-26T00:10:50.391Z,23.30
2022-08-26T00:13:19.456Z,23.14
2022-08-26T00:15:47.970Z,23.34
2022-08-26T00:18:22.246Z,23.35
2022-08-26T00:20:52.742Z,22.94
2022-08-26T00:23:24.080Z,22.79
2022-08-26T00:25:53.234Z,23.11
2022-08-26T00:28:22.271Z,23.12
2022-08-26T00:30:51.567Z,23.25
2022-08-26T00:33:22.141Z,23.21
2022-08-26T00:35:51.929Z,23.03
2022-08-26T00:38:22.228Z,22.93
2022-08-26T00:40:56.155Z,22.73
2022-08-26T00:43:26.200Z,22.76
2022-08-26T00:46:00.619Z,22.83
2022-08-26T00:48:33.947Z,23.01
2022-08-26T00:51:12.103Z,23.11
2022-08-26T00:53:47.121Z,23.03
2022-08-26T00:56:22.658Z,23.12
2022-08-26T00:58:52.004Z,23.18
2022-08-26T01:01:23.030Z,23.28
2022-08-26T01:03:51.810Z,23.29
2022-08-26T01:06:22.258Z,23.34
2022-08-26T01:08:52.514Z,23.32
2022-08-26T01:11:21.295Z,23.41
2022-08-26T01:13:52.399Z,23.51
2022-08-26T01:16:20.777Z,23.46
2022-08-26T01:18:49.883Z,23.40
2022-08-26T01:21:27.443Z,23.18
2022-08-26T01:24:00.790Z,23.29
2022-08-26T01:26:34.614Z,23.31
2022-08-26T01:29:06.656Z,23.34
2022-08-26T01:31:41.735Z,23.32
2022-08-26T01:34:17.149Z,23.29
2022-08-26T01:36:50.719Z,23.35
2022-08-26T01:39:21.663Z,23.27
2022-08-26T01:41:53.713Z,23.38
2022-08-26T01:44:28.195Z,23.18
2022-08-26T01:46:58.263Z,23.13
2022-08-26T01:49:27.903Z,23.28
2022-08-26T01:52:00.565Z,23.37
2022-08-26T01:54:30.186Z,23.05
2022-08-26T01:56:58.875Z,23.10
2022-08-26T01:59:27.366Z,23.19
2022-08-26T02:01:55.711Z,23.20
2022-08-26T02:04:30.922Z,23.19
2022-08-26T02:07:00.131Z,23.17
2022-08-26T02:09:29.763Z,23.19
2022-08-26T02:12:01.644Z,23.14
2022-08-26T02:14:34.810Z,23.04
2022-08-26T02:17:03.900Z,23.08
2022-08-26T02:19:40.934Z,23.05
2022-08-26T02:22:16.114Z,22.74
2022-08-26T02:24:52.668Z,22.93
2022-08-26T02:27:24.768Z,22.79
2022-08-26T02:29:59.151Z,22.90
2022-08-26T02:32:27.569Z,22.51
2022-08-26T02:34:55.893Z,22.96
2022-08-26T02:37:24.245Z,22.96
2022-08-26T02:39:55.089Z,23.01
2022-08-26T02:42:23.482Z,22.87
2022-08-26T02:44:53.451Z,22.71
2022-08-26T02:47:21.717Z,22.89
2022-08-26T02:49:53.515Z,23.02
2022-08-26T02:52:21.955Z,23.12
2022-08-26T02:54:50.189Z,23.06
2022-08-26T02:57:20.585Z,23.14
2022-08-26T02:59:50.607Z,22.52
2022-08-26T03:02:19.101Z,23.12
2022-08-26T03:04:57.927Z,22.77
2022-08-26T03:07:30.464Z,22.99
2022-08-26T03:10:00.670Z,23.09
2022-08-26T03:12:30.369Z,23.13
2022-08-26T03:14:58.627Z,23.19
2022-08-26T03:17:27.032Z,23.13
2022-08-26T03:19:57.283Z,23.26
2022-08-26T03:22:27.092Z,23.25
2022-08-26T03:24:55.958Z,23.00
2022-08-26T03:27:24.186Z,22.93
2022-08-26T03:30:11.746Z,22.85
2022-08-26T03:32:41.423Z,23.05
2022-08-26T03:35:10.932Z,22.83
2022-08-26T03:37:39.928Z,23.00
2022-08-26T03:40:11.613Z,23.06
2022-08-26T03:42:41.290Z,22.47
2022-08-26T03:45:16.701Z,23.14
2022-08-26T03:47:46.347Z,23.18
2022-08-26T03:50:22.674Z,23.18
2022-08-26T03:52:52.818Z,23.21
2022-08-26T03:55:25.803Z,22.93
2022-08-26T03:57:55.932Z,22.90
2022-08-26T04:00:25.957Z,22.79
2022-08-26T04:02:54.569Z,22.66
2022-08-26T04:05:24.781Z,22.47
2022-08-26T04:07:53.350Z,22.42
2022-08-26T04:10:28.814Z,22.41
2022-08-26T04:12:58.953Z,22.71
2022-08-26T04:15:29.347Z,22.79
2022-08-26T04:17:57.790Z,22.64
2022-08-26T04:20:26.500Z,22.48
2022-08-26T04:22:54.963Z,22.66
2022-08-26T04:25:24.230Z,22.75
2022-08-26T04:27:52.955Z,22.63
2022-08-26T04:30:22.074Z,22.75
2022-08-26T04:32:51.716Z,22.61
2022-08-26T04:35:25.853Z,22.65
2022-08-26T04:37:55.426Z,22.59
2022-08-26T04:40:24.427Z,22.71
2022-08-26T04:42:54.435Z,22.79
2022-08-26T04:45:23.031Z,22.81
2022-08-26T04:47:56.346Z,22.67
2022-08-26T04:50:25.798Z,22.80
2022-08-26T04:52:56.097Z,22.31
2022-08-26T04:55:38.461Z,22.85
2022-08-26T04:58:10.282Z,22.91
2022-08-26T05:00:39.604Z,22.73
2022-08-26T05:03:10.701Z,22.87
2022-08-26T05:05:42.413Z,22.98
2022-08-26T05:08:12.038Z,22.80
2022-08-26T05:10:42.111Z,22.73
2022-08-26T05:13:15.162Z,22.56
2022-08-26T05:15:46.067Z,22.79
2022-08-26T05:18:20.038Z,22.74
2022-08-26T05:20:54.020Z,22.81
2022-08-26T05:23:24.322Z,22.91
2022-08-26T05:25:59.314Z,22.96
2022-08-26T05:28:33.574Z,22.94
2022-08-26T05:31:01.885Z,22.90
2022-08-26T05:33:31.546Z,23.07
2022-08-26T05:35:59.831Z,23.04
2022-08-26T05:38:30.300Z,23.16
2022-08-26T05:40:58.932Z,23.19
2022-08-26T05:43:27.863Z,23.03
2022-08-26T05:45:56.354Z,23.06
2022-08-26T05:48:24.791Z,23.00
2022-08-26T05:50:54.839Z,22.96
2022-08-26T05:53:26.077Z,22.63
2022-08-26T05:55:58.092Z,23.10
2022-08-26T05:58:28.376Z,23.04
2022-08-26T06:01:05.923Z,23.05
2022-08-26T06:03:37.347Z,23.01
2022-08-26T06:06:11.168Z,23.03
2022-08-26T06:08:39.640Z,22.84
2022-08-26T06:11:18.389Z,22.75
2022-08-26T06:13:48.013Z,22.20
2022-08-26T06:16:20.333Z,22.63
2022-08-26T06:18:50.929Z,22.50
2022-08-26T06:21:24.209Z,22.67
2022-08-26T06:24:12.906Z,22.71
2022-08-26T06:26:44.476Z,22.75
2022-08-26T06:29:24.500Z,22.73
2022-08-26T06:31:53.656Z,22.87
2022-08-26T06:34:22.445Z,22.90
2022-08-26T06:36:53.567Z,22.97
2022-08-26T06:39:22.392Z,22.90
2022-08-26T06:41:51.434Z,22.98
2022-08-26T06:44:20.239Z,23.02
2022-08-26T06:46:50.546Z,23.04
2022-08-26T06:49:27.251Z,23.02
2022-08-26T06:51:59.136Z,22.96
2022-08-26T06:54:27.549Z,22.90
2022-08-26T06:56:56.951Z,22.98
2022-08-26T06:59:26.250Z,22.93
2022-08-26T07:01:55.163Z,23.00
2022-08-26T07:04:24.923Z,23.04
2022-08-26T07:06:57.996Z,23.14
2022-08-26T07:09:30.352Z,23.11
2022-08-26T07:11:59.291Z,23.06
2022-08-26T07:14:27.775Z,23.07
2022-08-26T07:16:56.440Z,23.02
2022-08-26T07:19:30.853Z,23.03
2022-08-26T07:22:06.251Z,23.10
2022-08-26T07:24:40.319Z,22.97
2022-08-26T07:27:13.815Z,23.08
2022-08-26T07:29:43.618Z,23.22
2022-08-26T07:32:14.693Z,23.26
2022-08-26T07:34:43.952Z,23.26
2022-08-26T07:37:13.640Z,23.37
2022-08-26T07:39:43.424Z,23.27
2022-08-26T07:42:14.743Z,23.33
2022-08-26T07:44:44.116Z,23.22
2022-08-26T07:47:24.975Z,23.29
2022-08-26T07:49:56.478Z,23.28
2022-08-26T07:52:28.602Z,23.30
2022-08-26T07:54:58.136Z,23.12
2022-08-26T07:57:26.739Z,23.01
2022-08-26T07:59:56.022Z,23.14
2022-08-26T08:02:27.294Z,23.22
2022-08-26T08:04:56.762Z,23.19
2022-08-26T08:07:38.351Z,23.11
2022-08-26T08:10:18.886Z,23.06
2022-08-26T08:12:50.317Z,22.91
2022-08-26T08:15:21.765Z,23.14
2022-08-26T08:17:51.662Z,23.02
2022-08-26T08:20:22.038Z,22.91
2022-08-26T08:22:54.654Z,23.16
2022-08-26T08:25:23.579Z,23.15
2022-08-26T08:27:54.275Z,23.17
2022-08-26T08:30:24.428Z,22.81
2022-08-26T08:32:53.298Z,23.19
2022-08-26T08:35:26.382Z,23.37
2022-08-26T08:37:56.544Z,23.23
2022-08-26T08:40:27.809Z,23.35
2022-08-26T08:43:05.403Z,23.33
2022-08-26T08:45:38.220Z,23.38
2022-08-26T08:48:14.460Z,23.47
2022-08-26T08:50:46.472Z,23.54
2022-08-26T08:53:22.634Z,23.53
2022-08-26T08:56:13.772Z,23.59
2022-08-26T08:58:53.659Z,23.44
2022-08-26T09:01:43.093Z,23.50
2022-08-26T09:04:25.864Z,23.56
2022-08-26T09:09:34.438Z,23.74
2022-08-26T09:12:03.715Z,23.80
2022-08-26T09:14:33.027Z,23.73
2022-08-26T09:17:08.855Z,23.82
2022-08-26T09:19:42.326Z,23.85
2022-08-26T09:22:10.713Z,23.81
2022-08-26T09:24:48.383Z,23.81
2022-08-26T09:27:39.940Z,23.74
2022-08-26T09:30:11.492Z,23.60
2022-08-26T09:32:40.895Z,23.34
2022-08-26T09:35:23.741Z,23.25
2022-08-26T09:37:53.224Z,22.93
2022-08-26T09:40:34.971Z,23.13
2022-08-26T09:43:15.895Z,23.23
2022-08-26T09:45:50.797Z,23.32
2022-08-26T09:48:32.605Z,23.17
2022-08-26T09:51:07.931Z,23.35
2022-08-26T09:53:38.616Z,23.26
2022-08-26T09:56:18.496Z,23.44
2022-08-26T09:58:48.982Z,23.55
2022-08-26T10:01:30.406Z,23.65
2022-08-26T10:04:08.432Z,23.49
2022-08-26T10:06:42.614Z,23.70
2022-08-26T10:09:15.099Z,23.65
2022-08-26T10:11:50.913Z,23.72
2022-08-26T10:14:26.265Z,23.70
2022-08-26T10:17:01.138Z,23.60
2022-08-26T10:19:55.943Z,23.66
2022-08-26T10:22:43.047Z,23.66
2022-08-26T10:25:17.551Z,23.39
2022-08-26T10:27:55.923Z,23.15
2022-08-26T10:30:30.570Z,23.36
2022-08-26T10:33:05.388Z,23.41
2022-08-26T10:35:36.801Z,23.48
2022-08-26T10:38:11.902Z,23.46
2022-08-26T10:40:55.099Z,23.60
2022-08-26T10:43:29.587Z,23.67
2022-08-26T10:46:04.696Z,23.36
2022-08-26T10:48:42.344Z,23.70
2022-08-26T10:51:14.047Z,23.67
2022-08-26T10:53:55.802Z,23.00
2022-08-26T10:56:41.413Z,23.58
2022-08-26T10:59:24.895Z,23.74
2022-08-26T11:02:07.100Z,23.66
2022-08-26T11:04:48.362Z,23.41
2022-08-26T11:07:40.437Z,23.58
2022-08-26T11:10:27.826Z,23.26
2022-08-26T11:13:01.654Z,23.52
2022-08-26T11:16:10.948Z,23.48
2022-08-26T11:18:46.139Z,23.52
2022-08-26T11:21:51.168Z,23.39
2022-08-26T11:24:43.362Z,23.57
2022-08-26T11:28:04.240Z,23.64
2022-08-26T11:30:57.847Z,23.72
2022-08-26T11:33:59.096Z,23.82
2022-08-26T11:36:59.768Z,23.74
2022-08-26T11:39:38.658Z,23.79
2022-08-26T11:42:23.070Z,23.78
2022-08-26T11:44:51.767Z,23.81
2022-08-26T11:47:30.660Z,23.30
2022-08-26T11:50:21.453Z,23.68
2022-08-26T11:53:01.889Z,23.66
2022-08-26T11:55:33.115Z,23.81
2022-08-26T11:58:05.863Z,23.83
2022-08-26T12:00:50.885Z,23.91
2022-08-26T12:03:23.838Z,23.80
2022-08-26T12:05:55.187Z,23.85
2022-08-26T12:08:28.819Z,23.87
2022-08-26T12:11:06.326Z,22.85
2022-08-26T12:13:36.801Z,23.97
2022-08-26T12:16:07.413Z,24.03
2022-08-26T12:18:38.859Z,23.94
2022-08-26T12:21:22.213Z,24.09
2022-08-26T12:23:55.686Z,24.06
2022-08-26T12:26:29.495Z,23.90
2022-08-26T12:29:01.247Z,23.60
2022-08-26T12:31:33.739Z,23.54
2022-08-26T12:34:07.163Z,23.19
2022-08-26T12:36:51.310Z,23.49
2022-08-26T12:39:29.651Z,23.47
2022-08-26T12:42:00.364Z,23.65
2022-08-26T12:44:54.029Z,23.82
2022-08-26T12:47:42.405Z,23.75
2022-08-26T12:50:19.486Z,23.75
2022-08-26T12:53:01.116Z,23.88
2022-08-26T12:55:40.357Z,23.95
2022-08-26T12:58:19.830Z,24.04
2022-08-26T13:00:49.302Z,24.04
2022-08-26T13:03:43.603Z,24.18
2022-08-26T13:06:16.734Z,24.22
2022-08-26T13:08:47.936Z,23.93
2022-08-26T13:11:20.339Z,23.35
2022-08-26T13:13:51.770Z,23.76
2022-08-26T13:16:20.694Z,23.80
2022-08-26T13:18:50.169Z,23.90
2022-08-26T13:21:20.683Z,23.95
2022-08-26T13:23:51.059Z,23.98
2022-08-26T13:26:20.636Z,23.99
2022-08-26T13:29:01.205Z,23.93
2022-08-26T13:31:32.902Z,23.86
2022-08-26T13:34:02.090Z,24.09
2022-08-26T13:36:31.086Z,24.09
2022-08-26T13:39:00.771Z,24.15
2022-08-26T13:41:29.838Z,24.18
2022-08-26T13:43:59.578Z,24.27
2022-08-26T13:46:28.954Z,24.27
2022-08-26T13:48:57.871Z,24.34
2022-08-26T13:51:27.786Z,24.42
2022-08-26T13:53:56.141Z,24.29
2022-08-26T13:56:29.404Z,23.71
2022-08-26T13:58:58.371Z,23.76
2022-08-26T14:01:28.162Z,23.91
2022-08-26T14:03:56.890Z,24.00
2022-08-26T14:06:25.261Z,24.08
2022-08-26T14:08:53.655Z,24.17
2022-08-26T14:11:22.400Z,24.27
2022-08-26T14:13:52.353Z,24.15
2022-08-26T14:16:27.110Z,24.23
2022-08-26T14:18:55.619Z,24.23
2022-08-26T14:21:25.066Z,24.38
2022-08-26T14:23:57.804Z,24.48
2022-08-26T14:26:29.951Z,24.49
2022-08-26T14:29:02.565Z,24.51
2022-08-26T14:31:33.493Z,24.50
2022-08-26T14:34:06.012Z,24.45
2022-08-26T14:36:35.217Z,24.39
2022-08-26T14:39:07.889Z,24.44
2022-08-26T14:41:44.051Z,24.50
2022-08-26T14:44:16.500Z,24.61
2022-08-26T14:46:48.605Z,24.40
2022-08-26T14:49:19.334Z,24.34
2022-08-26T14:51:48.324Z,24.29
2022-08-26T14:54:18.733Z,24.09
2022-08-26T14:56:51.277Z,23.85
2022-08-26T14:59:23.965Z,23.62
2022-08-26T15:01:53.159Z,23.81
2022-08-26T15:04:22.973Z,23.94
2022-08-26T15:06:54.473Z,23.90
2022-08-26T15:09:23.939Z,23.76
2022-08-26T15:11:53.058Z,23.86
2022-08-26T15:14:24.170Z,23.96
2022-08-26T15:16:55.822Z,23.91
2022-08-26T15:19:26.130Z,24.03
2022-08-26T15:21:54.739Z,24.13
2022-08-26T15:24:25.861Z,23.87
2022-08-26T15:26:54.662Z,24.03
2022-08-26T15:29:24.858Z,24.15
2022-08-26T15:31:55.330Z,24.18
2022-08-26T15:34:26.886Z,24.32
2022-08-26T15:36:55.744Z,24.39
2022-08-26T15:39:24.361Z,24.51
2022-08-26T15:41:52.739Z,24.41
2022-08-26T15:44:21.091Z,24.18
2022-08-26T15:46:54.322Z,24.29
2022-08-26T15:49:26.297Z,24.16
2022-08-26T15:51:54.957Z,24.14
2022-08-26T15:54:24.733Z,24.31
2022-08-26T15:56:53.767Z,24.27
2022-08-26T15:59:23.086Z,23.98
2022-08-26T16:01:53.483Z,23.93
2022-08-26T16:04:22.447Z,23.80
2022-08-26T16:06:52.147Z,23.93
2022-08-26T16:09:23.959Z,23.97
2022-08-26T16:11:53.441Z,23.90
2022-08-26T16:14:21.923Z,23.90
2022-08-26T16:16:53.365Z,24.04
2022-08-26T16:19:22.222Z,24.13
2022-08-26T16:21:51.428Z,23.99
2022-08-26T16:24:24.817Z,23.87
2022-08-26T16:26:55.799Z,23.83
2022-08-26T16:29:24.457Z,23.96
2022-08-26T16:31:54.736Z,24.06
2022-08-26T16:34:23.714Z,24.09
2022-08-26T16:36:52.384Z,24.13
2022-08-26T16:39:20.663Z,23.92
2022-08-26T16:41:48.959Z,23.86
2022-08-26T16:44:17.343Z,23.83
2022-08-26T16:46:45.846Z,23.69
2022-08-26T16:49:15.740Z,23.77
2022-08-26T16:51:44.011Z,23.74
2022-08-26T16:54:12.668Z,23.64
2022-08-26T16:56:41.057Z,23.66
2022-08-26T16:59:11.658Z,23.78
2022-08-26T17:01:40.197Z,23.78
2022-08-26T17:04:08.641Z,23.49
2022-08-26T17:06:38.529Z,23.56
2022-08-26T17:09:07.212Z,23.60
2022-08-26T17:11:36.150Z,23.40
2022-08-26T17:14:04.788Z,23.49
2022-08-26T17:16:33.718Z,23.45
2022-08-26T17:19:06.786Z,23.34
2022-08-26T17:21:38.038Z,23.27
2022-08-26T17:24:07.746Z,22.97
2022-08-26T17:26:37.714Z,23.10
2022-08-26T17:29:07.265Z,23.05
2022-08-26T17:31:35.606Z,23.09
2022-08-26T17:34:04.308Z,23.13
2022-08-26T17:36:32.623Z,23.12
2022-08-26T17:39:02.411Z,23.13
2022-08-26T17:41:30.720Z,23.13
2022-08-26T17:43:59.055Z,23.13
2022-08-26T17:46:28.022Z,23.18
2022-08-26T17:48:56.698Z,23.20
2022-08-26T17:51:25.686Z,23.18
2022-08-26T17:53:54.876Z,23.21
2022-08-26T17:56:28.920Z,23.27
2022-08-26T17:59:02.371Z,23.17
2022-08-26T18:01:32.957Z,23.10
2022-08-26T18:04:01.554Z,23.16
2022-08-26T18:06:31.435Z,23.15
2022-08-26T18:09:00.364Z,23.20
2022-08-26T18:11:31.166Z,23.16
2022-08-26T18:14:00.326Z,23.14
2022-08-26T18:16:31.865Z,23.23
2022-08-26T18:19:01.362Z,23.06
2022-08-26T18:21:29.684Z,23.06
2022-08-26T18:23:58.475Z,23.12
2022-08-26T18:26:32.418Z,23.12
2022-08-26T18:29:00.893Z,23.16
2022-08-26T18:31:30.134Z,23.16
2022-08-26T18:34:00.854Z,23.16
2022-08-26T18:36:30.866Z,23.13
2022-08-26T18:38:59.507Z,23.02
2022-08-26T18:41:34.201Z,23.14
2022-08-26T18:44:02.564Z,23.06
2022-08-26T18:46:30.902Z,23.01
2022-08-26T18:49:00.047Z,23.06
2022-08-26T18:51:31.448Z,23.04
2022-08-26T18:54:01.683Z,22.97
2022-08-26T18:56:31.603Z,22.95
2022-08-26T18:59:03.507Z,22.85
2022-08-26T19:01:32.785Z,22.73
2022-08-26T19:04:03.825Z,22.75
2022-08-26T19:06:35.571Z,22.77
2022-08-26T19:09:05.088Z,22.66
2022-08-26T19:11:37.404Z,22.73
2022-08-26T19:14:14.146Z,22.56
2022-08-26T19:16:44.599Z,22.65
2022-08-26T19:19:13.609Z,22.65
2022-08-26T19:21:42.744Z,22.65
2022-08-26T19:24:15.608Z,22.60
2022-08-26T19:26:48.032Z,22.61
2022-08-26T19:31:47.877Z,22.57
2022-08-26T19:34:20.196Z,22.44
2022-08-26T19:36:50.447Z,22.48
2022-08-26T19:39:18.783Z,22.52
2022-08-26T19:41:48.460Z,22.44
2022-08-26T19:44:34.019Z,22.36
2022-08-26T19:47:03.483Z,22.25
2022-08-26T19:49:32.101Z,22.31
2022-08-26T19:52:00.554Z,22.18
2022-08-26T19:54:28.918Z,22.32
2022-08-26T19:56:58.744Z,22.30
2022-08-26T19:59:27.291Z,22.25
2022-08-26T20:02:01.294Z,22.22
2022-08-26T20:04:30.819Z,22.18
2022-08-26T20:07:00.484Z,22.17
2022-08-26T20:09:29.425Z,22.17
2022-08-26T20:11:59.560Z,22.17
2022-08-26T20:14:29.862Z,22.14
2022-08-26T20:16:58.408Z,22.19
2022-08-26T20:19:44.775Z,22.08
2022-08-26T20:22:13.756Z,22.05
2022-08-26T20:24:42.619Z,22.06
2022-08-26T20:27:12.417Z,22.01
2022-08-26T20:29:42.986Z,22.01
2022-08-26T20:32:12.543Z,21.83
2022-08-26T20:34:41.670Z,21.93
2022-08-26T20:37:10.100Z,21.88
2022-08-26T20:39:38.509Z,21.87
2022-08-26T20:42:07.476Z,21.87
2022-08-26T20:44:54.812Z,21.85
2022-08-26T20:47:23.780Z,21.85
2022-08-26T20:49:52.313Z,21.61
2022-08-26T20:52:21.275Z,21.69
2022-08-26T20:54:49.548Z,21.78
2022-08-26T20:57:17.889Z,21.76
2022-08-26T20:59:46.129Z,21.79
2022-08-26T21:02:16.848Z,21.78
2022-08-26T21:04:45.264Z,21.74
2022-08-26T21:07:16.120Z,21.72
2022-08-26T21:09:46.103Z,21.62
2022-08-26T21:12:14.342Z,21.60
2022-08-26T21:14:45.643Z,21.54
2022-08-26T21:17:17.491Z,21.47
2022-08-26T21:19:45.798Z,21.44
2022-08-26T21:22:14.152Z,21.37
2022-08-26T21:24:42.439Z,21.40
2022-08-26T21:27:10.868Z,21.38
2022-08-26T21:29:39.193Z,21.27
2022-08-26T21:32:08.149Z,21.24
2022-08-26T21:34:42.084Z,21.11
2022-08-26T21:37:16.579Z,20.97
2022-08-26T21:39:45.363Z,20.90
2022-08-26T21:42:13.699Z,20.74
2022-08-26T21:44:43.379Z,20.61
2022-08-26T21:47:14.818Z,20.52
2022-08-26T21:49:44.889Z,20.47
2022-08-26T21:52:13.560Z,19.91
2022-08-26T21:54:41.802Z,20.46
2022-08-26T21:57:18.316Z,20.35
2022-08-26T21:59:46.599Z,20.37
2022-08-26T22:02:15.355Z,20.28
2022-08-26T22:04:48.672Z,20.21
2022-08-26T22:07:19.167Z,20.18
2022-08-26T22:09:48.660Z,20.08
2022-08-26T22:12:18.211Z,20.07
2022-08-26T22:14:47.042Z,19.94
2022-08-26T22:17:15.938Z,19.90
2022-08-26T22:19:46.204Z,19.94
2022-08-26T22:22:15.961Z,19.90
2022-08-26T22:24:44.316Z,19.94
2022-08-26T22:27:13.692Z,19.90
2022-08-26T22:29:42.239Z,19.88
2022-08-26T22:32:11.047Z,19.80
2022-08-26T22:34:39.503Z,19.79
2022-08-26T22:37:09.363Z,19.80
2022-08-26T22:39:37.895Z,19.74
2022-08-26T22:42:07.099Z,19.71
2022-08-26T22:44:36.885Z,19.73
2022-08-26T22:47:06.158Z,19.65
2022-08-26T22:49:34.435Z,19.63
2022-08-26T22:52:02.884Z,19.59
2022-08-26T22:54:32.827Z,19.50
2022-08-26T22:57:01.119Z,19.40
2022-08-26T22:59:30.272Z,19.33
2022-08-26T23:01:58.609Z,19.35
2022-08-26T23:04:26.870Z,19.42
2022-08-26T23:06:55.299Z,19.43
2022-08-26T23:09:23.566Z,19.38
2022-08-26T23:11:54.922Z,19.36
2022-08-26T23:14:24.682Z,19.30
2022-08-26T23:16:53.855Z,19.25
2022-08-26T23:19:23.838Z,19.24
2022-08-26T23:21:52.860Z,19.00
2022-08-26T23:24:21.361Z,18.55
2022-08-26T23:26:49.854Z,19.20
2022-08-26T23:29:19.533Z,19.27
2022-08-26T23:31:47.976Z,19.24
2022-08-26T23:34:33.691Z,19.21
2022-08-26T23:37:02.803Z,19.17
2022-08-26T23:39:34.753Z,19.15
2022-08-26T23:42:03.314Z,19.15
2022-08-26T23:44:32.991Z,19.18
2022-08-26T23:47:01.614Z,18.48
2022-08-26T23:49:30.209Z,19.18
2022-08-26T23:52:16.749Z,19.27
2022-08-26T23:54:47.641Z,19.12
2022-08-26T23:57:17.656Z,19.22
2022-08-26T23:59:48.466Z,19.24
